createdAt,value
2023-01-22T00:00:05.821Z,46.10
2023-01-22T00:02:36.030Z,49.50
2023-01-22T00:05:02.956Z,41.45
2023-01-22T00:07:29.409Z,45.17
2023-01-22T00:09:55.883Z,44.03
2023-01-22T00:12:22.352Z,44.50
2023-01-22T00:14:49.764Z,46.10
2023-01-22T00:17:16.305Z,41.45
2023-01-22T00:19:43.450Z,45.75
2023-01-22T00:22:11.556Z,39.13
2023-01-22T00:24:39.835Z,44.40
2023-01-22T00:27:06.461Z,41.65
2023-01-22T00:29:32.955Z,20.92
2023-01-22T00:31:59.529Z,42.30
2023-01-22T00:34:26.018Z,47.90
2023-01-22T00:36:54.010Z,40.13
2023-01-22T00:39:21.582Z,39.22
2023-01-22T00:41:49.747Z,40.33
2023-01-22T00:44:16.482Z,42.30
2023-01-22T00:46:43.055Z,38.92
2023-01-22T00:49:09.607Z,37.60
2023-01-22T00:51:37.000Z,39.42
2023-01-22T00:54:03.538Z,37.63
2023-01-22T00:56:30.059Z,43.05
2023-01-22T00:58:58.564Z,41.33
2023-01-22T01:01:25.136Z,43.70
2023-01-22T01:03:51.610Z,42.13
2023-01-22T01:06:21.197Z,43.42
2023-01-22T01:08:48.409Z,37.38
2023-01-22T01:11:21.939Z,38.08
2023-01-22T01:13:49.282Z,40.58
2023-01-22T01:16:29.554Z,35.65
2023-01-22T01:19:07.564Z,38.38
2023-01-22T01:21:34.018Z,45.20
2023-01-22T01:24:00.839Z,39.40
2023-01-22T01:26:27.839Z,36.58
2023-01-22T01:28:54.384Z,38.00
2023-01-22T01:31:23.387Z,34.70
2023-01-22T01:33:50.143Z,36.75
2023-01-22T01:36:40.433Z,37.55
2023-01-22T01:39:09.749Z,34.45
2023-01-22T01:41:36.195Z,36.38
2023-01-22T01:44:08.887Z,33.72
2023-01-22T01:46:39.174Z,35.15
2023-01-22T01:49:09.189Z,37.88
2023-01-22T01:51:36.822Z,38.53
2023-01-22T01:54:05.216Z,27.35
2023-01-22T01:56:37.844Z,34.47
2023-01-22T01:59:09.063Z,27.45
2023-01-22T02:01:36.495Z,38.38
2023-01-22T02:04:03.965Z,38.00
2023-01-22T02:06:30.539Z,33.97
2023-01-22T02:08:57.746Z,32.83
2023-01-22T02:11:25.258Z,30.85
2023-01-22T02:13:57.451Z,33.17
2023-01-22T02:16:23.963Z,34.60
2023-01-22T02:18:50.678Z,30.55
2023-01-22T02:21:39.972Z,31.90
2023-01-22T02:24:12.250Z,35.35
2023-01-22T02:26:40.036Z,35.78
2023-01-22T02:29:08.312Z,32.85
2023-01-22T02:31:36.855Z,34.35
2023-01-22T02:34:03.959Z,32.20
2023-01-22T02:36:31.987Z,33.47
2023-01-22T02:38:58.697Z,32.03
2023-01-22T02:41:26.173Z,29.05
2023-01-22T02:43:53.221Z,31.85
2023-01-22T02:46:20.854Z,32.33
2023-01-22T02:48:47.437Z,32.00
2023-01-22T02:51:14.064Z,28.35
2023-01-22T02:53:40.579Z,32.05
2023-01-22T02:56:08.901Z,29.77
2023-01-22T02:58:36.210Z,29.92
2023-01-22T03:01:20.931Z,32.05
2023-01-22T03:03:49.513Z,29.80
2023-01-22T03:06:16.247Z,29.73
2023-01-22T03:08:43.804Z,38.22
2023-01-22T03:11:11.561Z,32.72
2023-01-22T03:13:56.270Z,29.60
2023-01-22T03:16:41.076Z,33.10
2023-01-22T03:19:25.930Z,31.23
2023-01-22T03:21:52.361Z,29.90
2023-01-22T03:24:18.905Z,29.67
2023-01-22T03:26:45.719Z,30.35
2023-01-22T03:29:12.176Z,30.13
2023-01-22T03:31:38.718Z,32.10
2023-01-22T03:34:05.260Z,30.83
2023-01-22T03:36:31.744Z,31.83
2023-01-22T03:38:58.220Z,29.95
2023-01-22T03:41:24.720Z,31.35
2023-01-22T03:43:51.246Z,33.60
2023-01-22T03:46:19.549Z,31.42
2023-01-22T03:48:51.169Z,30.25
2023-01-22T03:51:17.924Z,31.55
2023-01-22T03:53:45.405Z,30.85
2023-01-22T03:56:23.096Z,31.98
2023-01-22T03:58:50.768Z,34.88
2023-01-22T04:01:21.013Z,33.13
2023-01-22T04:03:47.908Z,34.83
2023-01-22T04:06:15.526Z,31.08
2023-01-22T04:08:44.047Z,33.67
2023-01-22T04:11:11.602Z,32.75
2023-01-22T04:13:40.060Z,34.50
2023-01-22T04:16:07.816Z,33.85
2023-01-22T04:18:34.347Z,31.67
2023-01-22T04:21:01.264Z,33.00
2023-01-22T04:23:27.812Z,37.17
2023-01-22T04:25:54.545Z,29.33
2023-01-22T04:28:21.265Z,36.05
2023-01-22T04:30:50.813Z,32.45
2023-01-22T04:33:17.473Z,34.88
2023-01-22T04:35:44.040Z,34.72
2023-01-22T04:38:13.629Z,34.53
2023-01-22T04:40:40.243Z,31.27
2023-01-22T04:43:07.958Z,35.03
2023-01-22T04:45:34.591Z,34.75
2023-01-22T04:48:01.989Z,31.70
2023-01-22T04:50:31.581Z,30.90
2023-01-22T04:52:58.997Z,34.85
2023-01-22T04:55:27.035Z,37.72
2023-01-22T04:57:58.761Z,34.60
2023-01-22T05:00:26.052Z,34.30
2023-01-22T05:02:57.468Z,30.25
2023-01-22T05:05:24.695Z,28.92
2023-01-22T05:07:51.243Z,34.60
2023-01-22T05:10:18.293Z,33.40
2023-01-22T05:12:45.169Z,34.35
2023-01-22T05:15:23.231Z,27.67
2023-01-22T05:17:50.833Z,33.72
2023-01-22T05:20:18.043Z,32.70
2023-01-22T05:22:44.762Z,31.77
2023-01-22T05:25:11.767Z,14.55
2023-01-22T05:27:38.248Z,19.38
2023-01-22T05:30:06.291Z,29.17
2023-01-22T05:32:32.884Z,21.98
2023-01-22T05:34:59.408Z,22.60
2023-01-22T05:37:25.875Z,23.27
2023-01-22T05:39:52.292Z,32.00
2023-01-22T05:42:18.926Z,30.67
2023-01-22T05:44:45.365Z,30.25
2023-01-22T05:47:13.396Z,30.95
2023-01-22T05:49:41.046Z,28.27
2023-01-22T05:52:10.569Z,27.48
2023-01-22T05:54:38.886Z,27.10
2023-01-22T05:57:05.932Z,30.88
2023-01-22T05:59:32.638Z,30.48
2023-01-22T06:01:59.139Z,31.20
2023-01-22T06:04:25.711Z,29.42
2023-01-22T06:06:52.210Z,31.35
2023-01-22T06:09:18.679Z,27.60
2023-01-22T06:11:45.182Z,25.92
2023-01-22T06:14:11.775Z,28.85
2023-01-22T06:16:38.260Z,29.98
2023-01-22T06:19:05.088Z,31.23
2023-01-22T06:21:31.559Z,28.85
2023-01-22T06:23:58.055Z,32.97
2023-01-22T06:26:24.510Z,30.13
2023-01-22T06:28:51.110Z,21.70
2023-01-22T06:31:17.698Z,32.40
2023-01-22T06:33:44.192Z,28.75
2023-01-22T06:36:10.812Z,26.65
2023-01-22T06:38:38.071Z,26.65
2023-01-22T06:41:05.125Z,28.83
2023-01-22T06:43:31.686Z,27.50
2023-01-22T06:45:58.337Z,31.42
2023-01-22T06:48:24.919Z,31.67
2023-01-22T06:50:51.452Z,31.75
2023-01-22T06:53:18.008Z,29.83
2023-01-22T06:55:44.455Z,31.35
2023-01-22T06:58:10.895Z,31.35
2023-01-22T07:00:37.675Z,30.48
2023-01-22T07:03:06.763Z,26.50
2023-01-22T07:05:33.872Z,30.10
2023-01-22T07:08:01.327Z,29.05
2023-01-22T07:10:27.816Z,24.63
2023-01-22T07:12:55.528Z,26.80
2023-01-22T07:15:22.367Z,31.13
2023-01-22T07:17:53.290Z,30.60
2023-01-22T07:20:21.635Z,28.48
2023-01-22T07:22:48.385Z,27.42
2023-01-22T07:25:15.192Z,29.58
2023-01-22T07:27:41.700Z,29.38
2023-01-22T07:30:09.014Z,28.85
2023-01-22T07:32:35.949Z,30.75
2023-01-22T07:35:02.436Z,32.03
2023-01-22T07:37:28.893Z,28.15
2023-01-22T07:39:55.370Z,31.35
2023-01-22T07:42:21.825Z,33.83
2023-01-22T07:44:48.272Z,31.25
2023-01-22T07:47:14.753Z,30.63
2023-01-22T07:49:41.247Z,32.45
2023-01-22T07:52:07.741Z,29.77
2023-01-22T07:54:36.312Z,30.30
2023-01-22T07:57:03.740Z,28.52
2023-01-22T07:59:30.258Z,30.90
2023-01-22T08:01:57.085Z,23.95
2023-01-22T08:04:24.403Z,31.90
2023-01-22T08:06:51.684Z,26.08
2023-01-22T08:09:24.672Z,26.92
2023-01-22T08:11:52.439Z,28.83
2023-01-22T08:14:19.807Z,27.92
2023-01-22T08:16:46.579Z,30.58
2023-01-22T08:19:13.721Z,28.40
2023-01-22T08:21:40.303Z,27.70
2023-01-22T08:24:08.137Z,29.67
2023-01-22T08:26:35.014Z,25.70
2023-01-22T08:29:05.262Z,28.38
2023-01-22T08:31:33.408Z,27.63
2023-01-22T08:34:00.566Z,28.95
2023-01-22T08:36:27.556Z,26.90
2023-01-22T08:38:54.253Z,30.42
2023-01-22T08:41:20.983Z,27.67
2023-01-22T08:43:47.511Z,30.40
2023-01-22T08:46:14.036Z,28.48
2023-01-22T08:48:43.224Z,29.33
2023-01-22T08:51:11.102Z,29.73
2023-01-22T08:53:37.811Z,28.60
2023-01-22T08:56:04.772Z,27.80
2023-01-22T08:58:31.317Z,28.42
2023-01-22T09:00:57.898Z,30.98
2023-01-22T09:03:24.797Z,32.03
2023-01-22T09:05:51.628Z,32.03
2023-01-22T09:08:18.338Z,28.20
2023-01-22T09:10:44.820Z,31.25
2023-01-22T09:13:11.350Z,37.35
2023-01-22T09:15:38.316Z,35.92
2023-01-22T09:18:05.209Z,33.15
2023-01-22T09:20:31.853Z,29.40
2023-01-22T09:22:58.306Z,35.65
2023-01-22T09:25:26.232Z,34.17
2023-01-22T09:28:04.949Z,29.77
2023-01-22T09:30:32.259Z,31.42
2023-01-22T09:32:59.001Z,25.23
2023-01-22T09:35:27.324Z,30.77
2023-01-22T09:37:54.764Z,18.00
2023-01-22T09:40:23.372Z,28.45
2023-01-22T09:42:50.905Z,28.17
2023-01-22T09:45:22.218Z,33.80
2023-01-22T09:47:55.513Z,24.73
2023-01-22T09:50:25.330Z,28.85
2023-01-22T09:52:54.702Z,36.55
2023-01-22T09:55:23.963Z,32.15
2023-01-22T09:57:54.164Z,31.58
2023-01-22T10:00:32.033Z,38.20
2023-01-22T10:03:05.456Z,31.65
2023-01-22T10:05:41.067Z,29.02
2023-01-22T10:08:16.270Z,51.40
2023-01-22T10:13:22.888Z,36.10
2023-01-22T10:15:54.391Z,32.05
2023-01-22T10:18:33.330Z,26.85
2023-01-22T10:21:03.907Z,31.48
2023-01-22T10:23:32.722Z,29.65
2023-01-22T10:26:14.791Z,31.17
2023-01-22T10:29:30.744Z,44.30
2023-01-22T10:32:20.201Z,39.22
2023-01-22T10:35:01.010Z,35.47
2023-01-22T10:37:27.743Z,29.67
2023-01-22T10:39:59.455Z,31.23
2023-01-22T10:42:29.708Z,32.33
2023-01-22T10:45:08.240Z,28.02
2023-01-22T10:47:34.789Z,27.65
2023-01-22T10:50:14.414Z,28.80
2023-01-22T10:52:49.881Z,30.80
2023-01-22T10:55:26.417Z,26.48
2023-01-22T10:57:58.376Z,28.35
2023-01-22T11:00:50.257Z,35.85
2023-01-22T11:03:23.763Z,26.98
2023-01-22T11:05:57.800Z,24.98
2023-01-22T11:08:30.797Z,25.80
2023-01-22T11:11:05.378Z,26.33
2023-01-22T11:13:54.313Z,35.55
2023-01-22T11:16:23.974Z,27.58
2023-01-22T11:18:58.598Z,28.27
2023-01-22T11:21:39.574Z,19.80
2023-01-22T11:24:21.217Z,27.75
2023-01-22T11:27:09.081Z,31.92
2023-01-22T11:29:53.678Z,36.17
2023-01-22T11:32:38.949Z,44.67
2023-01-22T11:35:27.411Z,36.10
2023-01-22T11:38:31.093Z,32.28
2023-01-22T11:41:13.180Z,32.70
2023-01-22T11:44:01.498Z,29.65
2023-01-22T11:46:36.065Z,28.73
2023-01-22T11:49:19.387Z,27.85
2023-01-22T11:51:56.945Z,39.25
2023-01-22T11:54:32.347Z,43.70
2023-01-22T11:57:04.594Z,31.70
2023-01-22T12:00:08.531Z,31.83
2023-01-22T12:02:54.836Z,36.63
2023-01-22T12:05:40.809Z,32.30
2023-01-22T12:08:44.712Z,28.67
2023-01-22T12:11:20.204Z,52.55
2023-01-22T12:14:10.435Z,31.92
2023-01-22T12:17:10.863Z,30.33
2023-01-22T12:19:46.460Z,34.13
2023-01-22T12:22:34.168Z,48.65
2023-01-22T12:25:22.548Z,47.25
2023-01-22T12:28:15.786Z,36.70
2023-01-22T12:30:49.251Z,30.20
2023-01-22T12:33:27.096Z,17.42
2023-01-22T12:35:58.120Z,32.28
2023-01-22T12:38:51.621Z,28.50
2023-01-22T12:41:28.375Z,29.83
2023-01-22T12:43:59.421Z,44.17
2023-01-22T12:46:42.669Z,32.08
2023-01-22T12:49:12.044Z,29.80
2023-01-22T12:51:53.097Z,32.33
2023-01-22T12:54:25.627Z,23.77
2023-01-22T12:56:57.653Z,37.92
2023-01-22T12:59:46.352Z,47.03
2023-01-22T13:02:35.543Z,40.78
2023-01-22T13:05:26.368Z,41.28
2023-01-22T13:08:23.174Z,34.72
2023-01-22T13:11:01.659Z,49.40
2023-01-22T13:13:37.232Z,37.17
2023-01-22T13:16:07.557Z,40.42
2023-01-22T13:18:41.451Z,41.28
2023-01-22T13:21:10.643Z,28.50
2023-01-22T13:23:42.484Z,35.25
2023-01-22T13:26:20.112Z,40.95
2023-01-22T13:28:57.093Z,36.38
2023-01-22T13:31:23.891Z,37.78
2023-01-22T13:34:08.572Z,30.75
2023-01-22T13:36:44.118Z,34.33
2023-01-22T13:39:29.820Z,31.27
2023-01-22T13:42:04.977Z,35.35
2023-01-22T13:47:00.288Z,31.95
2023-01-22T13:49:32.249Z,45.13
2023-01-22T13:52:07.911Z,32.80
2023-01-22T13:54:47.914Z,35.00
2023-01-22T13:57:17.686Z,38.00
2023-01-22T13:59:54.557Z,39.20
2023-01-22T14:02:35.138Z,39.50
2023-01-22T14:05:01.947Z,36.17
2023-01-22T14:07:28.406Z,31.77
2023-01-22T14:09:55.948Z,37.42
2023-01-22T14:12:25.899Z,36.42
2023-01-22T14:14:54.406Z,34.35
2023-01-22T14:17:25.814Z,33.90
2023-01-22T14:19:52.751Z,43.05
2023-01-22T14:22:19.593Z,37.28
2023-01-22T14:24:46.148Z,36.35
2023-01-22T14:27:12.719Z,33.08
2023-01-22T14:29:39.316Z,36.28
2023-01-22T14:32:05.767Z,33.17
2023-01-22T14:34:32.335Z,38.88
2023-01-22T14:36:58.800Z,34.13
2023-01-22T14:39:25.435Z,35.05
2023-01-22T14:41:51.995Z,45.38
2023-01-22T14:44:18.633Z,42.55
2023-01-22T14:46:45.070Z,44.42
2023-01-22T14:49:11.539Z,35.88
2023-01-22T14:51:38.046Z,35.78
2023-01-22T14:54:04.523Z,33.22
2023-01-22T14:56:31.008Z,38.70
2023-01-22T14:58:57.479Z,44.72
2023-01-22T15:01:24.108Z,39.67
2023-01-22T15:03:52.313Z,36.92
2023-01-22T15:06:18.863Z,37.20
2023-01-22T15:08:45.441Z,36.83
2023-01-22T15:11:12.079Z,32.60
2023-01-22T15:13:38.586Z,32.67
2023-01-22T15:16:08.078Z,40.45
2023-01-22T15:18:38.556Z,38.78
2023-01-22T15:21:05.797Z,37.40
2023-01-22T15:23:33.953Z,47.65
2023-01-22T15:26:21.517Z,42.53
2023-01-22T15:28:47.992Z,40.92
2023-01-22T15:31:14.539Z,45.90
2023-01-22T15:33:41.135Z,39.97
2023-01-22T15:36:08.402Z,40.13
2023-01-22T15:38:34.886Z,41.28
2023-01-22T15:41:18.497Z,33.17
2023-01-22T15:43:46.287Z,38.28
2023-01-22T15:46:12.832Z,43.85
2023-01-22T15:48:39.376Z,41.75
2023-01-22T15:51:10.944Z,43.30
2023-01-22T15:53:37.485Z,35.38
2023-01-22T15:56:04.544Z,47.58
2023-01-22T15:58:34.309Z,40.25
2023-01-22T16:01:01.680Z,42.33
2023-01-22T16:03:28.301Z,36.55
2023-01-22T16:05:54.814Z,39.10
2023-01-22T16:08:21.620Z,39.78
2023-01-22T16:10:48.102Z,45.05
2023-01-22T16:13:14.574Z,38.75
2023-01-22T16:15:41.022Z,43.88
2023-01-22T16:18:07.499Z,44.38
2023-01-22T16:20:34.279Z,49.85
2023-01-22T16:23:00.827Z,53.30
2023-01-22T16:25:27.279Z,45.55
2023-01-22T16:27:53.757Z,43.80
2023-01-22T16:30:20.607Z,40.25
2023-01-22T16:32:47.276Z,46.17
2023-01-22T16:35:13.836Z,40.83
2023-01-22T16:37:40.393Z,46.08
2023-01-22T16:40:07.622Z,46.45
2023-01-22T16:42:35.817Z,49.25
2023-01-22T16:45:02.431Z,48.55
2023-01-22T16:47:28.977Z,50.15
2023-01-22T16:49:55.543Z,41.70
2023-01-22T16:52:23.175Z,40.55
2023-01-22T16:54:50.493Z,45.50
2023-01-22T16:57:19.214Z,50.83
2023-01-22T16:59:45.785Z,44.70
2023-01-22T17:02:15.185Z,41.63
2023-01-22T17:04:41.942Z,49.17
2023-01-22T17:07:20.499Z,63.58
2023-01-22T17:09:54.312Z,53.38
2023-01-22T17:12:20.771Z,45.42
2023-01-22T17:14:48.230Z,56.22
2023-01-22T17:17:14.722Z,51.10
2023-01-22T17:19:41.305Z,46.85
2023-01-22T17:22:07.868Z,51.95
2023-01-22T17:24:34.392Z,51.75
2023-01-22T17:27:03.884Z,47.05
2023-01-22T17:29:34.832Z,45.70
2023-01-22T17:32:02.916Z,49.28
2023-01-22T17:34:29.694Z,53.45
2023-01-22T17:36:56.231Z,49.28
2023-01-22T17:39:23.992Z,52.97
2023-01-22T17:41:50.466Z,48.70
2023-01-22T17:44:17.169Z,46.60
2023-01-22T17:46:43.635Z,52.78
2023-01-22T17:49:11.193Z,49.65
2023-01-22T17:51:37.798Z,51.83
2023-01-22T17:54:05.877Z,46.13
2023-01-22T17:56:37.526Z,58.28
2023-01-22T17:59:06.734Z,49.78
2023-01-22T18:01:35.715Z,51.88
2023-01-22T18:04:06.145Z,63.75
2023-01-22T18:06:33.544Z,46.17
2023-01-22T18:09:00.806Z,56.15
2023-01-22T18:11:29.501Z,49.92
2023-01-22T18:14:04.077Z,61.95
2023-01-22T18:16:33.846Z,56.58
2023-01-22T18:19:03.387Z,45.35
2023-01-22T18:21:30.022Z,47.45
2023-01-22T18:24:00.750Z,52.67
2023-01-22T18:26:27.360Z,52.13
2023-01-22T18:28:56.153Z,55.03
2023-01-22T18:31:27.246Z,51.45
2023-01-22T18:33:56.103Z,48.20
2023-01-22T18:36:27.023Z,52.13
2023-01-22T18:38:53.947Z,48.85
2023-01-22T18:41:26.004Z,51.58
2023-01-22T18:43:58.415Z,48.45
2023-01-22T18:46:28.204Z,49.22
2023-01-22T18:48:57.558Z,53.63
2023-01-22T18:51:25.102Z,48.83
2023-01-22T18:53:51.952Z,49.45
2023-01-22T18:56:18.557Z,51.53
2023-01-22T18:58:45.978Z,53.25
2023-01-22T19:01:17.188Z,55.47
2023-01-22T19:03:46.421Z,55.33
2023-01-22T19:06:16.226Z,54.83
2023-01-22T19:08:45.564Z,54.80
2023-01-22T19:11:14.058Z,54.53
2023-01-22T19:13:42.198Z,62.42
2023-01-22T19:16:11.220Z,55.65
2023-01-22T19:18:42.278Z,56.15
2023-01-22T19:21:12.414Z,51.30
2023-01-22T19:23:38.928Z,49.58
2023-01-22T19:26:12.482Z,59.70
2023-01-22T19:28:39.257Z,55.60
2023-01-22T19:31:16.481Z,59.85
2023-01-22T19:33:42.964Z,56.58
2023-01-22T19:36:09.812Z,55.45
2023-01-22T19:38:36.258Z,60.72
2023-01-22T19:41:03.814Z,60.58
2023-01-22T19:43:30.371Z,96.85
2023-01-22T19:45:56.967Z,69.18
2023-01-22T19:48:25.437Z,74.43
2023-01-22T19:50:59.550Z,71.18
2023-01-22T19:53:26.308Z,64.32
2023-01-22T19:55:52.997Z,76.38
2023-01-22T19:58:20.461Z,68.22
2023-01-22T20:00:47.500Z,65.18
2023-01-22T20:03:14.100Z,56.88
2023-01-22T20:05:42.088Z,56.78
2023-01-22T20:08:09.317Z,56.92
2023-01-22T20:10:37.491Z,73.70
2023-01-22T20:13:04.913Z,55.92
2023-01-22T20:15:36.288Z,65.78
2023-01-22T20:18:02.818Z,63.92
2023-01-22T20:20:29.442Z,65.90
2023-01-22T20:22:55.894Z,70.65
2023-01-22T20:25:22.812Z,62.50
2023-01-22T20:27:49.404Z,64.75
2023-01-22T20:30:16.353Z,54.85
2023-01-22T20:32:43.225Z,50.60
2023-01-22T20:35:11.723Z,62.72
2023-01-22T20:37:38.316Z,60.70
2023-01-22T20:40:05.292Z,58.92
2023-01-22T20:42:31.782Z,89.72
2023-01-22T20:44:58.364Z,68.47
2023-01-22T20:47:25.446Z,54.58
2023-01-22T20:49:51.939Z,72.57
2023-01-22T20:52:19.901Z,61.88
2023-01-22T20:55:01.081Z,53.67
2023-01-22T20:57:29.625Z,51.30
2023-01-22T20:59:56.192Z,57.78
2023-01-22T21:02:23.041Z,54.30
2023-01-22T21:04:53.220Z,54.20
2023-01-22T21:07:20.341Z,56.40
2023-01-22T21:09:46.914Z,51.22
2023-01-22T21:12:13.974Z,75.30
2023-01-22T21:14:40.809Z,63.65
2023-01-22T21:17:07.378Z,64.55
2023-01-22T21:19:33.893Z,70.22
2023-01-22T21:22:01.039Z,67.88
2023-01-22T21:24:27.754Z,43.47
2023-01-22T21:26:54.410Z,50.17
2023-01-22T21:29:23.378Z,64.15
2023-01-22T21:31:51.736Z,59.85
2023-01-22T21:34:20.789Z,69.45
2023-01-22T21:36:53.603Z,69.85
2023-01-22T21:39:24.027Z,50.53
2023-01-22T21:41:51.354Z,58.88
2023-01-22T21:44:38.116Z,58.28
2023-01-22T21:47:05.237Z,61.25
2023-01-22T21:49:34.800Z,51.72
2023-01-22T21:52:09.383Z,55.80
2023-01-22T21:54:38.890Z,53.55
2023-01-22T21:57:06.804Z,44.55
2023-01-22T21:59:33.635Z,42.55
2023-01-22T22:02:00.151Z,51.47
2023-01-22T22:04:27.539Z,53.50
2023-01-22T22:06:54.712Z,67.15
2023-01-22T22:09:24.295Z,51.90
2023-01-22T22:11:51.742Z,54.88
2023-01-22T22:14:21.969Z,51.88
2023-01-22T22:16:49.389Z,47.95
2023-01-22T22:19:17.591Z,55.70
2023-01-22T22:21:44.409Z,52.42
2023-01-22T22:24:11.204Z,49.28
2023-01-22T22:26:38.391Z,48.92
2023-01-22T22:29:06.314Z,49.78
2023-01-22T22:31:33.327Z,51.58
2023-01-22T22:33:59.871Z,54.25
2023-01-22T22:36:29.245Z,51.80
2023-01-22T22:38:57.689Z,46.60
2023-01-22T22:41:29.663Z,41.47
2023-01-22T22:43:56.795Z,44.47
2023-01-22T22:46:32.382Z,50.92
2023-01-22T22:49:00.336Z,49.20
2023-01-22T22:51:32.312Z,45.55
2023-01-22T22:54:01.906Z,47.55
2023-01-22T22:56:28.940Z,47.08
2023-01-22T22:58:55.777Z,47.92
2023-01-22T23:01:24.195Z,50.22
2023-01-22T23:03:51.536Z,42.58
2023-01-22T23:06:21.422Z,43.65
2023-01-22T23:08:53.389Z,42.83
2023-01-22T23:11:23.781Z,43.50
2023-01-22T23:13:51.054Z,40.67
2023-01-22T23:16:19.982Z,43.88
2023-01-22T23:18:49.160Z,43.17
2023-01-22T23:21:24.475Z,47.58
2023-01-22T23:23:52.655Z,34.95
2023-01-22T23:26:26.488Z,45.03
2023-01-22T23:28:56.444Z,46.15
2023-01-22T23:31:23.580Z,37.33
2023-01-22T23:33:51.424Z,41.40
2023-01-22T23:36:18.424Z,37.47
2023-01-22T23:38:45.969Z,48.58
2023-01-22T23:41:15.029Z,48.20
2023-01-22T23:43:42.754Z,41.67
2023-01-22T23:46:11.646Z,40.38
2023-01-22T23:48:38.507Z,38.42
2023-01-22T23:51:07.715Z,42.88
2023-01-22T23:53:40.000Z,44.85
2023-01-22T23:56:07.497Z,44.42
2023-01-22T23:58:34.941Z,31.95
